Time;durP1;ratioP1;P1;durP2;ratioP2;P2;SDS_P1;SDS_P2;PMS_P1;PMS_P2;Temp;Humidity;BMP_temperature;BMP_pressure;BME280_temperature;BME280_humidity;BME280_pressure;Samples;Min_cycle;Max_cycle;Signal;HPM_P1;HPM_P2
2021/07/09 16:43:24;;;;;;;6.93;3.88;;;;;;;30.52;30.49;94596.47;5112163;27;20190;-54
2021/07/09 16:45:51;;;;;;;6.13;3.55;;;;;;;32.62;27.25;94589.13;5107490;28;20048;-53
2021/07/09 16:48:18;;;;;;;6.53;3.10;;;;;;;33.61;26.04;94602.91;5093455;28;20044;-60
2021/07/09 16:50:46;;;;;;;4.63;3.42;;;;;;;34.48;24.57;94596.59;5095115;28;20357;-58
2021/07/09 16:53:13;;;;;;;6.10;3.30;;;;;;;34.88;24.05;94586.81;5091496;28;20047;-56
2021/07/09 16:55:40;;;;;;;6.03;3.60;;;;;;;34.89;24.11;94588.34;5098859;28;20048;-54
2021/07/09 16:58:07;;;;;;;4.63;3.33;;;;;;;35.08;23.85;94593.91;5093221;28;20473;-54
2021/07/09 17:00:34;;;;;;;3.50;3.20;;;;;;;35.30;23.53;94600.16;5100219;28;20055;-58
2021/07/09 17:03:01;;;;;;;3.40;3.10;;;;;;;35.28;23.68;94591.69;5091683;28;20434;-53
2021/07/09 17:05:28;;;;;;;4.18;3.47;;;;;;;34.95;24.09;94601.34;5091597;28;20044;-56
2021/07/09 17:07:55;;;;;;;4.95;3.20;;;;;;;34.79;23.93;94600.25;5090298;28;20052;-59
2021/07/09 17:10:22;;;;;;;4.60;3.30;;;;;;;35.19;23.39;94599.78;5111466;28;20567;-54
2021/07/09 17:12:49;;;;;;;5.78;3.10;;;;;;;35.02;23.68;94596.44;5111708;28;20048;-57
2021/07/09 17:15:16;;;;;;;3.33;3.03;;;;;;;35.22;23.45;94601.59;5112389;27;20040;-56
2021/07/09 17:17:43;;;;;;;3.47;3.17;;;;;;;35.39;23.40;94600.25;5112634;27;20054;-55
2021/07/09 17:20:11;;;;;;;5.57;3.08;;;;;;;34.96;23.71;94600.16;5111331;28;20358;-54
2021/07/09 17:22:39;;;;;;;3.22;2.83;;;;;;;35.00;23.73;94595.38;5111398;28;20055;-53
2021/07/09 17:25:06;;;;;;;3.22;2.92;;;;;;;34.76;23.95;94598.41;5111246;28;20040;-56
2021/07/09 17:27:33;;;;;;;5.20;3.05;;;;;;;35.00;23.87;94607.00;5111710;28;20051;-55
2021/07/09 17:30:00;;;;;;;4.90;3.30;;;;;;;35.16;23.66;94595.97;5110350;28;20051;-57
2021/07/09 17:32:27;;;;;;;3.42;3.13;;;;;;;34.71;24.22;94598.97;5111464;28;20445;-55
2021/07/09 17:34:55;;;;;;;4.65;2.83;;;;;;;35.06;23.99;94599.78;5110743;28;20043;-55
2021/07/09 17:37:25;;;;;;;3.33;2.80;;;;;;;34.95;23.94;94590.50;5111850;27;20051;-58
2021/07/09 17:39:53;;;;;;;4.00;3.13;;;;;;;34.70;24.57;94592.03;5111229;28;20473;-55
2021/07/09 17:42:21;;;;;;;3.38;3.08;;;;;;;34.81;24.22;94586.25;5111312;28;20378;-57
2021/07/09 17:44:49;;;;;;;3.33;2.65;;;;;;;34.56;24.38;94587.78;5111841;27;20050;-57
2021/07/09 17:47:16;;;;;;;3.90;2.80;;;;;;;34.41;24.58;94578.59;5110929;28;20055;-56
2021/07/09 17:49:43;;;;;;;3.17;2.88;;;;;;;34.36;24.70;94589.22;5110901;28;20050;-57
2021/07/09 17:52:10;;;;;;;4.53;2.88;;;;;;;34.57;24.39;94585.84;5111311;28;20473;-60
2021/07/09 17:54:37;;;;;;;5.00;3.00;;;;;;;34.66;24.36;94596.03;5097596;28;20052;-60
2021/07/09 17:57:05;;;;;;;3.67;2.90;;;;;;;34.71;24.33;94598.97;5097147;28;20052;-56
2021/07/09 17:59:32;;;;;;;3.83;2.80;;;;;;;34.42;24.49;94603.75;5097877;27;20048;-55
2021/07/09 18:01:59;;;;;;;3.30;3.00;;;;;;;34.23;24.70;94608.91;5097509;28;20052;-55
2021/07/09 18:04:26;;;;;;;4.38;2.65;;;;;;;34.20;24.63;94604.38;5097311;28;20044;-58
2021/07/09 18:06:55;;;;;;;3.95;2.60;;;;;;;34.61;24.08;94608.19;5097740;27;20047;-58
2021/07/09 18:09:24;;;;;;;4.32;2.70;;;;;;;34.56;24.16;94614.94;5097447;27;20473;-54
2021/07/09 18:11:51;;;;;;;4.38;2.90;;;;;;;34.49;23.97;94609.72;5097249;28;20074;-59
2021/07/09 18:14:19;;;;;;;3.88;2.90;;;;;;;34.52;23.88;94606.13;5097726;27;20055;-54
2021/07/09 18:16:47;;;;;;;3.13;2.80;;;;;;;34.43;24.03;94621.56;5096841;28;20055;-56
2021/07/09 18:19:15;;;;;;;3.22;2.92;;;;;;;34.60;23.75;94617.53;5096676;28;20458;-54
2021/07/09 18:21:42;;;;;;;3.30;2.42;;;;;;;34.27;24.11;94609.56;5097145;28;20055;-56
2021/07/09 18:24:09;;;;;;;3.00;2.70;;;;;;;34.39;24.12;94615.50;5096470;28;20453;-56
2021/07/09 18:26:36;;;;;;;4.10;2.60;;;;;;;34.43;23.98;94611.47;5096843;28;20458;-54
2021/07/09 18:29:04;;;;;;;3.92;2.40;;;;;;;34.49;23.66;94617.88;5096559;28;20438;-55
2021/07/09 18:31:32;;;;;;;2.70;2.50;;;;;;;34.08;24.04;94618.66;5083808;28;20052;-56
2021/07/09 18:34:00;;;;;;;3.70;2.72;;;;;;;34.18;23.78;94623.03;5076510;28;20055;-54
2021/07/09 18:36:28;;;;;;;3.03;2.72;;;;;;;34.04;24.03;94628.84;5082874;28;20531;-55
2021/07/09 18:38:55;;;;;;;3.92;2.58;;;;;;;34.36;23.79;94633.41;5096636;28;20484;-53
2021/07/09 18:41:22;;;;;;;4.10;2.42;;;;;;;34.09;23.77;94636.44;5100829;28;20052;-56
2021/07/09 18:43:49;;;;;;;3.28;2.60;;;;;;;33.89;24.27;94627.75;5116201;28;20051;-55
2021/07/09 18:46:19;;;;;;;4.00;2.65;;;;;;;34.06;23.93;94631.88;5116821;28;20054;-50
2021/07/09 18:48:46;;;;;;;5.25;2.80;;;;;;;34.20;23.67;94626.06;5116724;28;20050;-52
2021/07/09 18:51:14;;;;;;;3.67;2.45;;;;;;;34.22;23.86;94628.34;5116576;28;20055;-53
2021/07/09 18:53:41;;;;;;;2.85;2.63;;;;;;;33.88;24.29;94621.56;5115903;28;20039;-54
2021/07/09 18:56:09;;;;;;;3.03;2.60;;;;;;;33.89;24.07;94633.16;5113143;28;20047;-54
2021/07/09 18:58:36;;;;;;;4.50;2.38;;;;;;;33.75;24.30;94626.16;5095577;28;20446;-55
2021/07/09 19:01:07;;;;;;;2.78;2.45;;;;;;;33.88;24.33;94632.41;5095708;28;20048;-54
2021/07/09 19:03:35;;;;;;;3.78;2.63;;;;;;;33.77;24.72;94631.13;5095982;28;20055;-54
2021/07/09 19:06:05;;;;;;;4.57;2.60;;;;;;;34.00;24.04;94639.03;5095244;28;20075;-51
2021/07/09 19:08:34;;;;;;;3.30;2.78;;;;;;;33.98;24.17;94636.00;5095885;28;20438;-52
2021/07/09 19:11:03;;;;;;;3.20;2.72;;;;;;;33.59;24.51;94632.41;5095750;28;20055;-51
2021/07/09 19:13:30;;;;;;;4.20;2.70;;;;;;;33.54;24.78;94632.88;5095429;28;20341;-50
2021/07/09 19:15:57;;;;;;;2.95;2.55;;;;;;;33.96;24.15;94638.38;5095039;28;20044;-49
2021/07/09 19:18:24;;;;;;;5.10;2.70;;;;;;;33.89;24.36;94628.50;5095455;28;20049;-56
2021/07/09 19:20:51;;;;;;;3.92;2.60;;;;;;;33.98;23.96;94630.56;5094883;28;20051;-54
2021/07/09 19:23:19;;;;;;;3.55;2.30;;;;;;;33.68;24.42;94629.81;5095901;28;20039;-57
2021/07/09 19:25:46;;;;;;;3.90;3.05;;;;;;;33.63;24.55;94624.16;5115464;28;20058;-53
2021/07/09 19:28:13;;;;;;;2.85;2.47;;;;;;;33.64;24.40;94640.00;5116379;28;20043;-53
2021/07/09 19:30:41;;;;;;;3.45;2.45;;;;;;;33.69;23.96;94628.63;5107517;28;20047;-53
2021/07/09 19:33:11;;;;;;;3.80;2.80;;;;;;;33.82;24.01;94622.47;5115395;28;20040;-56
2021/07/09 19:35:39;;;;;;;2.78;2.30;;;;;;;33.90;24.06;94618.41;5114863;28;20055;-55
2021/07/09 19:38:07;;;;;;;3.33;2.40;;;;;;;33.81;24.12;94616.28;5115937;28;20048;-54
2021/07/09 19:40:34;;;;;;;5.00;2.72;;;;;;;33.92;24.05;94616.03;5097432;28;20054;-55
2021/07/09 19:43:01;;;;;;;3.47;2.80;;;;;;;33.81;23.89;94604.69;5114347;28;20500;-54
2021/07/09 19:45:29;;;;;;;4.15;2.88;;;;;;;33.44;24.12;94600.66;5115460;28;20043;-57
2021/07/09 19:47:56;;;;;;;2.97;2.50;;;;;;;33.65;24.07;94609.00;5115788;28;20050;-58
2021/07/09 19:50:23;;;;;;;4.90;2.45;;;;;;;33.52;24.23;94615.53;5114712;28;20044;-54
2021/07/09 19:52:51;;;;;;;3.67;2.90;;;;;;;33.42;24.07;94601.09;5115600;28;20039;-57
2021/07/09 19:55:19;;;;;;;3.85;2.75;;;;;;;33.35;24.44;94601.28;5114944;28;20484;-54
2021/07/09 19:57:46;;;;;;;4.65;2.47;;;;;;;33.50;23.96;94597.00;5114179;28;20047;-60
2021/07/09 20:00:16;;;;;;;3.63;2.67;;;;;;;33.20;24.64;94595.44;5083445;28;20450;-56
2021/07/09 20:02:43;;;;;;;5.05;2.80;;;;;;;33.39;24.43;94594.59;5095034;28;20048;-56
2021/07/09 20:05:11;;;;;;;3.50;2.47;;;;;;;33.19;24.12;94596.63;5094784;28;20063;-55
2021/07/09 20:07:39;;;;;;;4.43;3.00;;;;;;;33.45;23.99;94589.41;5115593;28;20446;-55
2021/07/09 20:10:08;;;;;;;4.95;2.67;;;;;;;33.47;24.17;94581.59;5113632;28;20381;-52
2021/07/09 20:12:35;;;;;;;5.13;3.10;;;;;;;32.94;24.46;94583.72;5115193;28;20488;-53
2021/07/09 20:15:04;;;;;;;3.33;2.63;;;;;;;33.19;24.29;94593.16;5115403;28;20055;-54
2021/07/09 20:17:31;;;;;;;4.75;2.60;;;;;;;33.17;24.46;94593.59;5115154;28;20354;-54
2021/07/09 20:19:58;;;;;;;4.10;2.88;;;;;;;33.10;24.90;94591.06;5101855;28;20047;-55
2021/07/09 20:22:26;;;;;;;5.07;2.80;;;;;;;32.92;24.84;94585.31;5115029;28;20044;-53
2021/07/09 20:24:53;;;;;;;2.85;2.65;;;;;;;32.95;25.00;94590.66;5114710;28;20365;-57
2021/07/09 20:27:20;;;;;;;3.40;2.60;;;;;;;32.92;24.94;94580.66;5114855;28;20357;-55
2021/07/09 20:29:47;;;;;;;5.18;2.65;;;;;;;32.87;24.64;94588.56;5105861;28;20357;-52
2021/07/09 20:32:14;;;;;;;5.65;2.70;;;;;;;32.91;24.69;94600.06;5113878;28;20426;-55
2021/07/09 20:34:41;;;;;;;3.70;2.70;;;;;;;32.79;24.79;94594.16;5114410;28;20059;-56
2021/07/09 20:37:08;;;;;;;4.70;2.83;;;;;;;32.43;25.37;94586.03;5115254;28;20039;-53
2021/07/09 20:39:35;;;;;;;3.55;2.80;;;;;;;32.67;25.43;94580.47;5115070;28;20058;-59
2021/07/09 20:42:02;;;;;;;3.78;2.60;;;;;;;32.80;24.93;94567.84;5105420;28;20060;-56
2021/07/09 20:44:29;;;;;;;3.35;2.50;;;;;;;32.79;25.64;94567.06;5094721;28;20052;-55
2021/07/09 20:46:56;;;;;;;2.70;2.50;;;;;;;32.58;25.79;94572.97;5094821;28;20045;-57
2021/07/09 20:49:24;;;;;;;4.45;2.95;;;;;;;32.49;26.12;94581.66;5090284;28;20055;-59
2021/07/09 20:51:51;;;;;;;3.00;2.70;;;;;;;32.43;25.90;94586.03;5068552;28;20362;-57
2021/07/09 20:54:18;;;;;;;5.00;2.60;;;;;;;32.57;26.23;94584.22;5082780;28;20040;-55
2021/07/09 20:56:45;;;;;;;5.55;2.78;;;;;;;32.28;26.51;94592.97;5094503;28;20059;-57
2021/07/09 20:59:12;;;;;;;8.63;3.10;;;;;;;32.36;26.50;94588.16;5093004;28;20048;-55
2021/07/09 21:01:39;;;;;;;3.78;3.00;;;;;;;32.28;26.44;94587.56;5093378;28;20467;-57
2021/07/09 21:04:06;;;;;;;3.33;3.00;;;;;;;32.06;26.66;94591.88;5094302;28;20047;-54
2021/07/09 21:06:33;;;;;;;3.38;3.00;;;;;;;32.46;26.49;94587.91;5093682;28;20056;-58
2021/07/09 21:09:00;;;;;;;3.78;3.35;;;;;;;32.02;26.89;94588.50;5094479;28;20040;-55
2021/07/09 21:11:27;;;;;;;4.45;3.20;;;;;;;32.43;26.13;94588.75;5094252;28;20476;-55
2021/07/09 21:13:54;;;;;;;5.38;3.42;;;;;;;32.45;25.71;94596.44;5093714;28;20059;-55
2021/07/09 21:16:21;;;;;;;3.88;3.50;;;;;;;32.29;26.57;94604.56;5093891;28;20047;-51
2021/07/09 21:18:48;;;;;;;4.15;2.97;;;;;;;32.60;25.97;94608.47;5094395;28;20044;-56
2021/07/09 21:21:15;;;;;;;3.90;3.03;;;;;;;32.38;26.21;94608.19;5085306;28;20040;-55
2021/07/09 21:23:44;;;;;;;6.28;3.30;;;;;;;32.33;26.71;94613.34;5093590;28;20043;-55
2021/07/09 21:26:11;;;;;;;5.32;3.53;;;;;;;32.66;26.08;94625.72;5093431;28;20055;-55
2021/07/09 21:28:38;;;;;;;4.22;3.80;;;;;;;32.21;26.96;94630.94;5095439;28;20044;-53
2021/07/09 21:31:05;;;;;;;4.78;3.95;;;;;;;32.36;26.61;94637.59;5079556;28;20053;-52
2021/07/09 21:33:32;;;;;;;5.78;3.85;;;;;;;32.59;26.09;94650.25;5077531;28;20044;-55
2021/07/09 21:35:59;;;;;;;4.05;3.58;;;;;;;32.47;26.73;94648.19;5096969;28;20081;-54
2021/07/09 21:38:27;;;;;;;6.93;3.50;;;;;;;32.75;26.29;94655.66;5098213;28;20048;-58
2021/07/09 21:40:54;;;;;;;6.10;3.90;;;;;;;32.60;26.10;94657.19;5097352;28;20063;-57
2021/07/09 21:43:21;;;;;;;6.28;3.45;;;;;;;32.44;26.27;94663.31;5117929;28;20043;-54
2021/07/09 21:45:48;;;;;;;7.53;3.45;;;;;;;32.16;26.93;94655.78;5117128;28;20054;-53
2021/07/09 21:48:15;;;;;;;5.53;3.55;;;;;;;32.45;26.49;94651.31;5118194;28;20059;-53
2021/07/09 21:50:42;;;;;;;7.53;3.67;;;;;;;31.78;27.83;94664.25;5117869;28;20043;-56
2021/07/09 21:53:09;;;;;;;5.25;3.58;;;;;;;31.97;27.01;94656.53;5117319;28;20039;-52
2021/07/09 21:55:40;;;;;;;3.42;3.13;;;;;;;32.02;27.37;94659.53;5080745;28;20040;-55
2021/07/09 21:58:08;;;;;;;4.15;3.22;;;;;;;31.76;27.43;94665.84;5077185;28;20386;-53
2021/07/09 22:00:35;;;;;;;4.57;3.40;;;;;;;31.98;27.39;94666.94;5089365;28;20063;-53
2021/07/09 22:03:03;;;;;;;4.07;3.60;;;;;;;31.96;27.34;94673.94;5115980;28;20050;-52
2021/07/09 22:05:31;;;;;;;5.88;3.72;;;;;;;31.81;27.76;94671.53;5117763;28;20052;-55
2021/07/09 22:07:58;;;;;;;4.75;3.33;;;;;;;32.03;27.38;94673.81;5116345;28;20051;-53
2021/07/09 22:10:25;;;;;;;4.22;3.10;;;;;;;32.00;27.52;94680.03;5117345;28;20063;-52
2021/07/09 22:12:52;;;;;;;6.03;3.05;;;;;;;32.57;26.46;94684.31;5117365;28;20050;-53
2021/07/09 22:15:19;;;;;;;6.18;3.63;;;;;;;32.08;27.21;94682.19;5116546;28;20047;-55
2021/07/09 22:17:46;;;;;;;5.72;3.30;;;;;;;32.59;26.47;94688.13;5117639;28;20047;-52
2021/07/09 22:20:14;;;;;;;4.35;3.50;;;;;;;31.72;27.81;94689.44;5117333;28;20054;-52
2021/07/09 22:22:43;;;;;;;5.05;3.10;;;;;;;32.02;27.50;94683.13;5116216;28;20047;-54
2021/07/09 22:25:11;;;;;;;4.07;3.58;;;;;;;32.16;26.69;94682.81;5115399;28;20062;-53
2021/07/09 22:27:38;;;;;;;5.47;3.42;;;;;;;32.02;27.37;94681.16;5117362;28;20039;-53
2021/07/09 22:30:10;;;;;;;5.03;3.45;;;;;;;31.87;27.55;94675.25;5115899;28;20492;-52
2021/07/09 22:32:37;;;;;;;;;;;;;;;31.74;27.51;94671.63;5116151;28;20047;-56
2021/07/09 22:35:08;;;;;;;3.80;3.20;;;;;;;32.28;26.59;94663.28;5099275;28;19912;-54
2021/07/09 22:37:35;;;;;;;2.75;2.55;;;;;;;31.64;27.62;94677.97;5116238;28;20488;-53
2021/07/09 22:40:05;;;;;;;3.35;3.00;;;;;;;31.91;27.12;94683.31;5115940;28;20055;-53
2021/07/09 22:42:33;;;;;;;3.58;2.60;;;;;;;31.79;27.62;94690.09;5115467;28;20055;-54
2021/07/09 22:45:03;;;;;;;4.95;2.90;;;;;;;32.08;27.35;94694.97;5116023;28;20446;-53
2021/07/09 22:47:30;;;;;;;5.93;3.13;;;;;;;31.85;27.51;94680.31;5098926;28;20054;-51
2021/07/09 22:49:58;;;;;;;4.72;2.90;;;;;;;31.77;27.49;94678.94;5115509;28;20047;-53
2021/07/09 22:52:25;;;;;;;4.65;2.50;;;;;;;31.59;28.03;94686.56;5115385;28;20055;-54
2021/07/09 22:54:52;;;;;;;4.00;2.78;;;;;;;31.99;27.18;94673.88;5115059;28;20043;-57
2021/07/09 22:57:20;;;;;;;4.80;3.03;;;;;;;32.07;27.14;94679.91;5116123;28;20039;-55
2021/07/09 22:59:48;;;;;;;4.95;3.00;;;;;;;31.50;28.15;94683.66;5116398;28;20052;-53
2021/07/09 23:02:15;;;;;;;5.18;3.13;;;;;;;31.67;27.70;94679.84;5116165;28;20050;-51
2021/07/09 23:04:42;;;;;;;3.40;2.58;;;;;;;31.27;28.38;94679.78;5116622;28;20044;-51
2021/07/09 23:07:09;;;;;;;4.28;2.80;;;;;;;31.84;27.74;94684.22;5115870;28;20481;-52
2021/07/09 23:09:36;;;;;;;3.63;2.53;;;;;;;31.61;27.95;94676.13;5092730;28;20059;-54
2021/07/09 23:12:03;;;;;;;8.10;3.38;;;;;;;31.88;27.39;94679.50;5095745;28;20056;-57
2021/07/09 23:14:30;;;;;;;3.65;2.33;;;;;;;31.80;27.94;94674.66;5115548;28;20051;-56
2021/07/09 23:16:57;;;;;;;5.32;2.50;;;;;;;31.48;28.08;94680.56;5114978;28;20055;-53
2021/07/09 23:19:25;;;;;;;3.60;2.95;;;;;;;31.81;27.58;94682.34;5086602;28;20269;-56
2021/07/09 23:21:52;;;;;;;4.57;2.70;;;;;;;31.76;27.78;94677.41;5116051;28;20047;-56
2021/07/09 23:24:19;;;;;;;5.45;2.75;;;;;;;31.47;28.35;94681.75;5115248;28;20044;-56
2021/07/09 23:26:46;;;;;;;2.85;2.42;;;;;;;31.35;28.30;94691.22;5115334;28;20058;-55
2021/07/09 23:29:13;;;;;;;4.07;2.50;;;;;;;31.47;28.28;94684.44;5115896;28;20044;-53
2021/07/09 23:31:40;;;;;;;3.35;2.80;;;;;;;31.26;28.84;94678.25;5116210;28;20043;-56
2021/07/09 23:34:07;;;;;;;3.75;2.80;;;;;;;31.33;28.60;94682.00;5116000;28;20035;-52
2021/07/09 23:36:34;;;;;;;4.93;3.05;;;;;;;31.26;28.40;94680.97;5116030;28;20051;-54
2021/07/09 23:39:02;;;;;;;4.60;2.80;;;;;;;31.17;28.65;94680.72;5115751;28;20050;-57
2021/07/09 23:41:29;;;;;;;3.08;2.72;;;;;;;31.33;28.99;94679.31;5115496;28;20434;-54
2021/07/09 23:43:56;;;;;;;3.83;2.80;;;;;;;31.47;28.55;94681.75;5114988;28;20357;-57
2021/07/09 23:46:23;;;;;;;3.30;3.00;;;;;;;31.86;27.79;94676.44;5116185;28;20054;-57
2021/07/09 23:48:50;;;;;;;7.38;2.83;;;;;;;31.10;28.86;94686.19;5115620;28;20050;-54
2021/07/09 23:51:18;;;;;;;4.72;2.60;;;;;;;31.40;28.63;94682.66;5114930;28;20047;-51
2021/07/09 23:53:45;;;;;;;6.85;2.63;;;;;;;31.65;28.22;94682.22;5115590;28;20039;-53
2021/07/09 23:56:13;;;;;;;4.40;2.40;;;;;;;31.87;27.98;94675.25;5114967;28;20058;-55
2021/07/09 23:58:41;;;;;;;3.28;2.60;;;;;;;31.75;28.56;94675.91;5110165;28;20043;-55
